createdAt,value
2022-07-27T00:01:00.822Z,22.61
2022-07-27T00:03:27.932Z,22.63
2022-07-27T00:05:54.923Z,22.46
2022-07-27T00:08:24.142Z,22.37
2022-07-27T00:10:52.322Z,22.32
2022-07-27T00:13:19.555Z,22.22
2022-07-27T00:15:46.478Z,22.08
2022-07-27T00:18:13.524Z,22.21
2022-07-27T00:20:41.362Z,22.25
2022-07-27T00:23:08.892Z,22.18
2022-07-27T00:25:36.327Z,22.14
2022-07-27T00:28:04.255Z,22.06
2022-07-27T00:30:31.332Z,22.15
2022-07-27T00:32:58.436Z,22.08
2022-07-27T00:35:25.600Z,22.12
2022-07-27T00:37:53.388Z,22.11
2022-07-27T00:40:20.404Z,22.01
2022-07-27T00:42:47.448Z,22.12
2022-07-27T00:45:14.669Z,22.01
2022-07-27T00:47:41.770Z,22.01
2022-07-27T00:50:09.494Z,22.15
2022-07-27T00:52:38.142Z,22.18
2022-07-27T00:55:06.529Z,22.13
2022-07-27T00:57:33.682Z,22.10
2022-07-27T01:00:21.483Z,21.91
2022-07-27T01:02:51.966Z,21.79
2022-07-27T01:05:19.242Z,21.89
2022-07-27T01:07:49.527Z,21.91
2022-07-27T01:10:18.062Z,21.98
2022-07-27T01:12:46.363Z,22.00
2022-07-27T01:15:13.914Z,22.02
2022-07-27T01:17:41.085Z,21.91
2022-07-27T01:20:08.606Z,21.96
2022-07-27T01:22:35.694Z,21.94
2022-07-27T01:25:02.662Z,21.92
2022-07-27T01:27:29.714Z,21.99
2022-07-27T01:29:56.686Z,21.96
2022-07-27T01:32:23.800Z,21.98
2022-07-27T01:34:50.807Z,21.97
2022-07-27T01:37:17.875Z,21.97
2022-07-27T01:39:45.880Z,21.96
2022-07-27T01:42:12.898Z,21.94
2022-07-27T01:44:39.927Z,21.94
2022-07-27T01:47:14.780Z,21.95
2022-07-27T01:49:42.007Z,21.88
2022-07-27T01:52:08.991Z,21.85
2022-07-27T01:54:35.999Z,21.88
2022-07-27T01:57:03.085Z,21.81
2022-07-27T01:59:30.115Z,21.79
2022-07-27T02:01:57.218Z,21.81
2022-07-27T02:04:24.990Z,21.85
2022-07-27T02:06:51.965Z,21.85
2022-07-27T02:09:20.325Z,21.86
2022-07-27T02:12:05.611Z,21.73
2022-07-27T02:14:32.592Z,21.76
2022-07-27T02:16:59.606Z,21.64
2022-07-27T02:19:26.881Z,21.57
2022-07-27T02:21:54.158Z,21.58
2022-07-27T02:24:21.199Z,21.58
2022-07-27T02:26:49.541Z,21.48
2022-07-27T02:29:16.724Z,21.36
2022-07-27T02:31:43.694Z,21.36
2022-07-27T02:34:11.521Z,21.34
2022-07-27T02:36:38.663Z,21.42
2022-07-27T02:39:05.842Z,21.43
2022-07-27T02:41:32.765Z,21.37
2022-07-27T02:43:59.752Z,21.40
2022-07-27T02:46:26.766Z,21.34
2022-07-27T02:48:54.804Z,21.27
2022-07-27T02:51:21.823Z,21.32
2022-07-27T02:53:48.895Z,21.31
2022-07-27T02:56:15.978Z,21.38
2022-07-27T02:58:42.962Z,21.34
2022-07-27T03:01:09.966Z,21.32
2022-07-27T03:03:38.357Z,21.40
2022-07-27T03:06:09.005Z,21.41
2022-07-27T03:08:36.803Z,21.39
2022-07-27T03:11:04.317Z,21.30
2022-07-27T03:13:31.451Z,21.39
2022-07-27T03:15:58.944Z,21.43
2022-07-27T03:18:26.093Z,21.36
2022-07-27T03:20:53.313Z,21.34
2022-07-27T03:23:20.374Z,21.27
2022-07-27T03:25:47.342Z,21.28
2022-07-27T03:28:14.487Z,21.16
2022-07-27T03:30:41.544Z,21.15
2022-07-27T03:33:08.721Z,21.15
2022-07-27T03:35:35.672Z,21.15
2022-07-27T03:38:02.762Z,21.14
2022-07-27T03:40:32.845Z,21.15
2022-07-27T03:43:00.891Z,21.16
2022-07-27T03:45:27.995Z,21.14
2022-07-27T03:47:55.643Z,21.10
2022-07-27T03:50:23.353Z,21.10
2022-07-27T03:52:51.997Z,21.13
2022-07-27T03:55:22.152Z,21.07
2022-07-27T03:57:49.201Z,21.06
2022-07-27T04:00:16.255Z,20.98
2022-07-27T04:02:43.516Z,20.94
2022-07-27T04:05:12.005Z,20.98
2022-07-27T04:07:39.835Z,20.79
2022-07-27T04:10:08.086Z,20.94
2022-07-27T04:12:39.774Z,21.01
2022-07-27T04:15:09.159Z,21.07
2022-07-27T04:17:55.526Z,21.12
2022-07-27T04:20:23.404Z,21.12
2022-07-27T04:22:50.351Z,21.08
2022-07-27T04:25:17.748Z,21.14
2022-07-27T04:27:44.728Z,21.14
2022-07-27T04:30:13.371Z,21.17
2022-07-27T04:32:40.403Z,21.19
2022-07-27T04:35:08.244Z,21.07
2022-07-27T04:37:35.347Z,20.85
2022-07-27T04:40:02.643Z,20.88
2022-07-27T04:42:30.293Z,21.11
2022-07-27T04:44:57.994Z,21.22
2022-07-27T04:47:24.935Z,21.15
2022-07-27T04:49:52.020Z,21.19
2022-07-27T04:52:19.434Z,21.24
2022-07-27T04:54:54.743Z,21.31
2022-07-27T04:57:23.271Z,21.41
2022-07-27T04:59:50.604Z,21.32
2022-07-27T05:02:17.723Z,21.37
2022-07-27T05:04:44.803Z,21.49
2022-07-27T05:07:11.844Z,21.47
2022-07-27T05:09:38.812Z,21.60
2022-07-27T05:12:05.886Z,21.76
2022-07-27T05:14:33.826Z,21.91
2022-07-27T05:17:00.892Z,21.92
2022-07-27T05:19:39.964Z,22.06
2022-07-27T05:22:08.506Z,22.12
2022-07-27T05:24:35.497Z,22.26
2022-07-27T05:27:02.685Z,22.33
2022-07-27T05:29:29.631Z,22.41
2022-07-27T05:31:56.731Z,22.47
2022-07-27T05:34:23.859Z,22.60
2022-07-27T05:36:50.910Z,22.73
2022-07-27T05:39:18.299Z,22.91
2022-07-27T05:41:45.611Z,23.01
2022-07-27T05:44:12.874Z,23.20
2022-07-27T05:46:40.891Z,23.35
2022-07-27T05:49:07.750Z,23.59
2022-07-27T05:51:35.200Z,23.73
2022-07-27T05:54:02.170Z,23.79
2022-07-27T05:56:29.372Z,23.80
2022-07-27T05:58:56.603Z,23.86
2022-07-27T06:01:23.770Z,23.91
2022-07-27T06:03:50.895Z,23.96
2022-07-27T06:06:36.610Z,24.00
2022-07-27T06:09:05.286Z,24.00
2022-07-27T06:11:32.293Z,24.02
2022-07-27T06:13:59.390Z,24.21
2022-07-27T06:16:26.549Z,24.29
2022-07-27T06:18:53.717Z,24.19
2022-07-27T06:21:20.851Z,24.18
2022-07-27T06:23:48.616Z,24.21
2022-07-27T06:26:15.761Z,24.30
2022-07-27T06:28:42.862Z,24.33
2022-07-27T06:31:09.941Z,24.45
2022-07-27T06:33:38.435Z,24.60
2022-07-27T06:36:08.491Z,24.79
2022-07-27T06:38:35.678Z,24.89
2022-07-27T06:41:02.684Z,24.81
2022-07-27T06:43:32.603Z,24.81
2022-07-27T06:46:00.523Z,24.96
2022-07-27T06:48:27.653Z,25.03
2022-07-27T06:50:54.868Z,25.24
2022-07-27T06:53:22.013Z,25.27
2022-07-27T06:55:50.010Z,25.44
2022-07-27T06:58:18.037Z,25.50
2022-07-27T07:00:45.674Z,25.38
2022-07-27T07:03:12.755Z,25.25
2022-07-27T07:05:46.851Z,24.90
2022-07-27T07:08:15.078Z,24.68
2022-07-27T07:10:44.415Z,24.45
2022-07-27T07:13:12.063Z,24.27
2022-07-27T07:15:41.184Z,24.28
2022-07-27T07:18:09.244Z,24.27
2022-07-27T07:20:37.616Z,24.22
2022-07-27T07:23:05.722Z,24.02
2022-07-27T07:25:34.701Z,23.95
2022-07-27T07:28:02.721Z,23.77
2022-07-27T07:30:30.203Z,23.59
2022-07-27T07:32:57.887Z,23.68
2022-07-27T07:35:25.362Z,23.77
2022-07-27T07:37:53.093Z,23.73
2022-07-27T07:43:08.832Z,23.72
2022-07-27T07:45:50.584Z,23.54
2022-07-27T07:48:20.405Z,23.68
2022-07-27T07:50:51.966Z,23.45
2022-07-27T07:53:24.637Z,23.42
2022-07-27T07:55:53.160Z,23.39
2022-07-27T07:58:21.222Z,23.28
2022-07-27T08:00:48.525Z,23.23
2022-07-27T08:03:16.379Z,23.05
2022-07-27T08:05:43.926Z,23.13
2022-07-27T08:08:11.643Z,23.25
2022-07-27T08:10:38.764Z,23.31
2022-07-27T08:13:05.854Z,23.43
2022-07-27T08:15:35.145Z,23.65
2022-07-27T08:18:05.545Z,23.87
2022-07-27T08:20:32.970Z,24.01
2022-07-27T08:23:00.841Z,24.10
2022-07-27T08:25:28.158Z,24.34
2022-07-27T08:27:55.511Z,24.55
2022-07-27T08:30:24.241Z,24.84
2022-07-27T08:33:01.268Z,25.21
2022-07-27T08:35:29.725Z,25.51
2022-07-27T08:37:58.068Z,25.95
2022-07-27T08:40:43.457Z,26.21
2022-07-27T08:43:21.779Z,26.49
2022-07-27T08:45:57.646Z,26.82
2022-07-27T08:48:26.458Z,27.14
2022-07-27T08:50:54.143Z,27.27
2022-07-27T08:53:22.369Z,27.41
2022-07-27T08:55:50.657Z,27.47
2022-07-27T08:58:18.099Z,27.31
2022-07-27T09:00:48.697Z,27.41
2022-07-27T09:03:20.068Z,27.19
2022-07-27T09:05:48.771Z,27.43
2022-07-27T09:08:30.352Z,27.80
2022-07-27T09:11:00.003Z,28.20
2022-07-27T09:13:34.529Z,28.62
2022-07-27T09:16:21.945Z,28.79
2022-07-27T09:18:58.591Z,29.09
2022-07-27T09:21:26.037Z,29.32
2022-07-27T09:23:54.294Z,29.61
2022-07-27T09:26:33.142Z,29.40
2022-07-27T09:29:14.222Z,28.91
2022-07-27T09:31:43.964Z,29.11
2022-07-27T09:34:12.442Z,29.25
2022-07-27T09:36:54.791Z,29.40
2022-07-27T09:39:24.522Z,29.20
2022-07-27T09:41:56.041Z,29.05
2022-07-27T09:44:43.545Z,29.05
2022-07-27T09:47:27.157Z,29.24
2022-07-27T09:50:17.821Z,29.08
2022-07-27T09:52:45.254Z,28.72
2022-07-27T09:55:12.444Z,28.96
2022-07-27T09:57:57.509Z,29.09
2022-07-27T10:00:27.002Z,28.99
2022-07-27T10:02:55.381Z,29.07
2022-07-27T10:05:23.497Z,28.92
2022-07-27T10:07:53.016Z,28.75
2022-07-27T10:10:20.452Z,29.13
2022-07-27T10:12:54.000Z,28.89
2022-07-27T10:15:24.108Z,29.37
2022-07-27T10:18:15.337Z,29.82
2022-07-27T10:20:47.568Z,30.29
2022-07-27T10:23:30.354Z,29.94
2022-07-27T10:26:20.800Z,29.96
2022-07-27T10:29:13.102Z,30.02
2022-07-27T10:31:42.771Z,29.73
2022-07-27T10:34:13.286Z,29.61
2022-07-27T10:36:44.629Z,29.66
2022-07-27T10:39:11.891Z,29.59
2022-07-27T10:41:44.050Z,29.64
2022-07-27T10:44:17.710Z,29.58
2022-07-27T10:47:01.772Z,29.42
2022-07-27T10:49:31.261Z,29.13
2022-07-27T10:51:59.655Z,29.39
2022-07-27T10:54:36.932Z,30.01
2022-07-27T10:57:07.015Z,29.72
2022-07-27T11:02:41.686Z,29.60
2022-07-27T11:05:37.902Z,29.76
2022-07-27T11:08:47.439Z,30.11
2022-07-27T11:10:48.652Z,30.93
2022-07-27T11:13:19.640Z,31.44
2022-07-27T11:16:26.210Z,31.85
2022-07-27T11:19:03.959Z,31.59
2022-07-27T11:21:36.770Z,31.20
2022-07-27T11:24:11.263Z,30.46
2022-07-27T11:26:52.534Z,30.57
2022-07-27T11:29:22.604Z,30.40
2022-07-27T11:31:55.927Z,30.43
2022-07-27T11:34:35.974Z,29.68
2022-07-27T11:37:12.048Z,29.91
2022-07-27T11:40:00.205Z,29.68
2022-07-27T11:42:40.343Z,29.27
2022-07-27T11:45:07.919Z,28.91
2022-07-27T11:47:36.192Z,28.99
2022-07-27T11:50:11.821Z,29.33
2022-07-27T11:52:39.017Z,29.48
2022-07-27T11:55:06.861Z,29.44
2022-07-27T11:57:36.279Z,29.42
2022-07-27T12:00:06.640Z,29.60
2022-07-27T12:02:49.052Z,29.64
2022-07-27T12:05:16.321Z,29.46
2022-07-27T12:07:44.616Z,29.42
2022-07-27T12:10:12.072Z,29.52
2022-07-27T12:12:39.183Z,29.67
2022-07-27T12:18:04.924Z,30.01
2022-07-27T12:20:34.462Z,29.68
2022-07-27T12:23:07.263Z,29.15
2022-07-27T12:25:35.693Z,29.30
2022-07-27T12:28:07.499Z,29.27
2022-07-27T12:30:47.796Z,28.87
2022-07-27T12:33:37.412Z,29.00
2022-07-27T12:36:07.176Z,29.17
2022-07-27T12:38:43.921Z,29.04
2022-07-27T12:41:22.838Z,29.10
2022-07-27T12:44:10.588Z,28.87
2022-07-27T12:47:02.577Z,28.65
2022-07-27T12:49:34.919Z,28.61
2022-07-27T12:52:09.820Z,28.70
2022-07-27T12:54:38.238Z,28.94
2022-07-27T12:57:05.254Z,29.03
2022-07-27T12:59:32.347Z,29.49
2022-07-27T13:01:59.499Z,29.55
2022-07-27T13:04:26.708Z,30.23
2022-07-27T13:06:53.654Z,30.79
2022-07-27T13:09:20.752Z,31.03
2022-07-27T13:11:48.468Z,31.07
2022-07-27T13:14:15.978Z,31.12
2022-07-27T13:16:43.135Z,31.18
2022-07-27T13:19:10.881Z,31.49
2022-07-27T13:21:38.374Z,31.70
2022-07-27T13:24:07.338Z,31.76
2022-07-27T13:26:35.023Z,31.69
2022-07-27T13:29:02.461Z,31.96
2022-07-27T13:31:29.531Z,31.71
2022-07-27T13:33:56.768Z,31.73
2022-07-27T13:36:24.214Z,31.99
2022-07-27T13:38:51.556Z,32.02
2022-07-27T13:41:18.863Z,31.84
2022-07-27T13:43:45.897Z,31.26
2022-07-27T13:46:12.952Z,31.30
2022-07-27T13:48:40.290Z,31.46
2022-07-27T13:51:07.633Z,31.47
2022-07-27T13:53:34.762Z,31.23
2022-07-27T13:56:03.503Z,30.90
2022-07-27T13:58:30.461Z,30.53
2022-07-27T14:00:57.555Z,30.78
2022-07-27T14:03:24.689Z,30.92
2022-07-27T14:05:53.595Z,30.96
2022-07-27T14:08:22.791Z,31.09
2022-07-27T14:10:51.143Z,30.96
2022-07-27T14:13:18.859Z,30.97
2022-07-27T14:15:53.255Z,31.18
2022-07-27T14:18:29.081Z,31.44
2022-07-27T14:20:58.109Z,31.25
2022-07-27T14:23:26.191Z,31.10
2022-07-27T14:25:54.014Z,31.16
2022-07-27T14:28:21.733Z,30.90
2022-07-27T14:30:48.861Z,30.52
2022-07-27T14:33:17.661Z,30.37
2022-07-27T14:35:45.501Z,30.22
2022-07-27T14:38:12.831Z,30.27
2022-07-27T14:40:41.975Z,30.03
2022-07-27T14:43:10.367Z,29.71
2022-07-27T14:45:45.332Z,29.71
2022-07-27T14:48:21.498Z,29.61
2022-07-27T14:50:52.718Z,29.55
2022-07-27T14:53:19.626Z,29.90
2022-07-27T14:55:46.603Z,30.05
2022-07-27T14:58:13.599Z,29.88
2022-07-27T15:00:41.270Z,29.87
2022-07-27T15:03:08.360Z,29.59
2022-07-27T15:05:49.915Z,29.83
2022-07-27T15:08:21.500Z,29.77
2022-07-27T15:10:49.379Z,30.03
2022-07-27T15:13:17.980Z,29.78
2022-07-27T15:15:48.761Z,29.84
2022-07-27T15:18:18.949Z,29.86
2022-07-27T15:20:46.356Z,29.65
2022-07-27T15:23:13.925Z,29.67
2022-07-27T15:25:41.016Z,29.83
2022-07-27T15:28:08.038Z,29.73
2022-07-27T15:30:38.603Z,29.39
2022-07-27T15:33:06.696Z,29.04
2022-07-27T15:35:33.565Z,28.88
2022-07-27T15:38:00.672Z,28.93
2022-07-27T15:40:42.938Z,28.85
2022-07-27T15:43:13.969Z,28.75
2022-07-27T15:45:42.410Z,28.71
2022-07-27T15:48:11.379Z,28.62
2022-07-27T15:50:40.951Z,28.30
2022-07-27T15:53:08.535Z,28.47
2022-07-27T15:55:37.731Z,28.39
2022-07-27T15:58:08.276Z,28.57
2022-07-27T16:00:40.609Z,28.55
2022-07-27T16:03:10.767Z,28.62
2022-07-27T16:05:39.676Z,28.63
2022-07-27T16:08:09.991Z,28.56
2022-07-27T16:10:38.971Z,28.54
2022-07-27T16:13:07.098Z,28.28
2022-07-27T16:15:57.666Z,28.32
2022-07-27T16:18:25.451Z,28.42
2022-07-27T16:21:11.687Z,28.26
2022-07-27T16:23:38.749Z,28.25
2022-07-27T16:26:06.905Z,28.13
2022-07-27T16:28:39.336Z,28.20
2022-07-27T16:31:09.185Z,28.02
2022-07-27T16:33:36.753Z,28.08
2022-07-27T16:36:05.520Z,28.21
2022-07-27T16:38:32.835Z,28.06
2022-07-27T16:41:00.311Z,28.03
2022-07-27T16:43:38.587Z,28.15
2022-07-27T16:46:08.839Z,28.32
2022-07-27T16:48:41.862Z,28.54
2022-07-27T16:51:14.862Z,28.62
2022-07-27T16:53:45.829Z,28.63
2022-07-27T16:56:14.777Z,28.61
2022-07-27T16:58:42.228Z,28.48
2022-07-27T17:01:09.772Z,28.48
2022-07-27T17:03:50.316Z,28.45
2022-07-27T17:06:18.977Z,28.43
2022-07-27T17:08:46.108Z,28.30
2022-07-27T17:11:13.382Z,28.35
2022-07-27T17:13:46.873Z,28.37
2022-07-27T17:16:16.466Z,28.47
2022-07-27T17:18:43.705Z,28.31
2022-07-27T17:21:13.575Z,28.44
2022-07-27T17:23:43.858Z,28.40
2022-07-27T17:26:14.060Z,28.35
2022-07-27T17:28:41.731Z,28.26
2022-07-27T17:31:11.306Z,28.22
2022-07-27T17:33:40.161Z,28.11
2022-07-27T17:36:14.010Z,28.01
2022-07-27T17:38:46.570Z,28.09
2022-07-27T17:41:19.182Z,28.07
2022-07-27T17:43:49.493Z,28.06
2022-07-27T17:46:17.399Z,28.08
2022-07-27T17:48:44.612Z,28.05
2022-07-27T17:51:12.054Z,28.10
2022-07-27T17:53:39.110Z,28.15
2022-07-27T17:56:06.194Z,28.03
2022-07-27T17:58:33.287Z,28.05
2022-07-27T18:01:00.372Z,27.98
2022-07-27T18:03:27.618Z,28.00
2022-07-27T18:05:55.072Z,27.94
2022-07-27T18:08:22.320Z,27.99
2022-07-27T18:10:51.643Z,27.89
2022-07-27T18:13:18.767Z,27.86
2022-07-27T18:15:48.695Z,27.92
2022-07-27T18:18:21.438Z,27.95
2022-07-27T18:20:52.557Z,27.97
2022-07-27T18:23:20.857Z,28.02
2022-07-27T18:25:48.072Z,28.05
2022-07-27T18:28:16.545Z,28.10
2022-07-27T18:30:44.495Z,28.09
2022-07-27T18:33:12.222Z,28.06
2022-07-27T18:35:40.076Z,28.05
2022-07-27T18:38:10.453Z,28.07
2022-07-27T18:40:39.150Z,27.94
2022-07-27T18:43:08.053Z,27.92
2022-07-27T18:45:35.098Z,27.95
2022-07-27T18:48:02.188Z,27.91
2022-07-27T18:50:29.905Z,27.95
2022-07-27T18:52:57.606Z,27.91
2022-07-27T18:55:25.368Z,27.81
2022-07-27T18:57:55.576Z,27.47
2022-07-27T19:00:24.549Z,27.25
2022-07-27T19:02:55.368Z,26.84
2022-07-27T19:05:32.502Z,26.37
2022-07-27T19:08:13.275Z,26.08
2022-07-27T19:10:42.841Z,25.98
2022-07-27T19:13:11.538Z,25.78
2022-07-27T19:15:39.832Z,25.67
2022-07-27T19:18:07.739Z,25.57
2022-07-27T19:20:37.026Z,25.48
2022-07-27T19:23:07.812Z,25.28
2022-07-27T19:25:34.984Z,25.22
2022-07-27T19:28:03.921Z,25.12
2022-07-27T19:30:32.642Z,25.08
2022-07-27T19:33:00.386Z,24.95
2022-07-27T19:35:27.757Z,24.99
2022-07-27T19:37:54.839Z,24.90
2022-07-27T19:43:09.263Z,24.71
2022-07-27T19:45:36.937Z,24.81
2022-07-27T19:48:05.854Z,24.85
2022-07-27T19:50:33.410Z,24.85
2022-07-27T19:53:01.500Z,24.82
2022-07-27T19:55:28.450Z,24.83
2022-07-27T19:57:56.473Z,24.75
2022-07-27T20:00:23.629Z,24.66
2022-07-27T20:02:51.028Z,24.67
2022-07-27T20:05:18.716Z,24.61
2022-07-27T20:07:46.062Z,24.50
2022-07-27T20:10:13.102Z,24.53
2022-07-27T20:12:40.248Z,24.41
2022-07-27T20:15:08.051Z,24.42
2022-07-27T20:17:40.627Z,24.38
2022-07-27T20:20:09.797Z,24.34
2022-07-27T20:22:39.477Z,24.28
2022-07-27T20:25:08.557Z,24.29
2022-07-27T20:27:36.202Z,24.19
2022-07-27T20:30:05.133Z,24.22
2022-07-27T20:32:32.148Z,24.01
2022-07-27T20:34:59.357Z,24.04
2022-07-27T20:37:26.406Z,24.03
2022-07-27T20:39:53.974Z,23.99
2022-07-27T20:42:20.932Z,23.94
2022-07-27T20:44:48.132Z,23.85
2022-07-27T20:47:15.249Z,23.84
2022-07-27T20:49:42.388Z,23.86
2022-07-27T20:52:09.586Z,23.92
2022-07-27T20:54:38.440Z,23.88
2022-07-27T20:57:05.578Z,23.87
2022-07-27T20:59:33.614Z,23.79
2022-07-27T21:02:01.716Z,23.83
2022-07-27T21:04:28.819Z,23.78
2022-07-27T21:06:55.892Z,23.61
2022-07-27T21:09:22.934Z,23.64
2022-07-27T21:11:50.231Z,23.63
2022-07-27T21:14:17.449Z,23.59
2022-07-27T21:16:44.528Z,23.52
2022-07-27T21:19:12.481Z,23.57
2022-07-27T21:21:40.051Z,23.53
2022-07-27T21:24:17.357Z,23.47
2022-07-27T21:26:50.353Z,23.33
2022-07-27T21:29:18.530Z,23.30
2022-07-27T21:31:50.218Z,23.33
2022-07-27T21:34:19.501Z,23.37
2022-07-27T21:36:47.295Z,23.42
2022-07-27T21:39:14.654Z,23.31
2022-07-27T21:41:42.048Z,23.19
2022-07-27T21:44:09.085Z,23.13
2022-07-27T21:46:36.533Z,23.19
2022-07-27T21:49:04.809Z,23.15
2022-07-27T21:51:31.893Z,23.11
2022-07-27T21:53:58.961Z,23.05
2022-07-27T21:56:26.205Z,23.04
2022-07-27T21:58:53.265Z,22.96
2022-07-27T22:01:20.438Z,22.85
2022-07-27T22:03:48.001Z,22.84
2022-07-27T22:06:15.181Z,22.84
2022-07-27T22:08:42.222Z,22.93
2022-07-27T22:11:09.972Z,22.92
2022-07-27T22:13:37.045Z,22.89
2022-07-27T22:16:05.430Z,22.84
2022-07-27T22:18:32.530Z,22.91
2022-07-27T22:20:59.658Z,22.89
2022-07-27T22:23:26.732Z,22.96
2022-07-27T22:25:53.731Z,22.85
2022-07-27T22:28:25.454Z,22.83
2022-07-27T22:31:15.556Z,22.88
2022-07-27T22:33:40.450Z,22.70
2022-07-27T22:36:12.924Z,22.71
2022-07-27T22:38:40.222Z,22.67
2022-07-27T22:41:08.286Z,22.73
2022-07-27T22:43:35.414Z,22.76
2022-07-27T22:46:04.142Z,22.79
2022-07-27T22:48:31.338Z,22.76
2022-07-27T22:50:58.430Z,22.80
2022-07-27T22:53:25.447Z,22.78
2022-07-27T22:55:52.613Z,22.73
2022-07-27T22:58:19.634Z,22.71
2022-07-27T23:00:46.864Z,22.62
2022-07-27T23:03:13.885Z,22.68
2022-07-27T23:05:40.917Z,22.57
2022-07-27T23:08:08.014Z,22.50
2022-07-27T23:10:47.136Z,22.33
2022-07-27T23:13:16.202Z,22.28
2022-07-27T23:15:44.663Z,22.28
2022-07-27T23:18:12.943Z,22.30
2022-07-27T23:20:40.295Z,22.34
2022-07-27T23:23:12.469Z,22.27
2022-07-27T23:25:43.286Z,22.18
2022-07-27T23:28:10.525Z,22.24
2022-07-27T23:30:37.805Z,22.22
2022-07-27T23:33:04.945Z,22.19
2022-07-27T23:35:32.547Z,22.17
2022-07-27T23:38:00.746Z,22.10
2022-07-27T23:40:28.215Z,22.15
2022-07-27T23:42:55.165Z,22.09
2022-07-27T23:45:22.286Z,22.01
2022-07-27T23:47:49.494Z,21.93
2022-07-27T23:50:16.533Z,21.95
2022-07-27T23:52:43.973Z,21.94
2022-07-27T23:55:11.326Z,21.90
2022-07-27T23:57:38.264Z,21.90
